Time;durP1;ratioP1;P1;durP2;ratioP2;P2;SDS_P1;SDS_P2;PMS_P1;PMS_P2;Temp;Humidity;BMP_temperature;BMP_pressure;BME280_temperature;BME280_humidity;BME280_pressure;Samples;Min_cycle;Max_cycle;Signal;HPM_P1;HPM_P2
2021/05/15 00:00:22;;;;;;;2.15;0.30;;;;;;;27.56;27.16;95995.06;5031650;28;20036;-32
2021/05/15 00:02:48;;;;;;;0.45;0.32;;;;;;;27.55;27.30;95986.34;5030386;28;20029;-32
2021/05/15 00:05:13;;;;;;;1.05;0.43;;;;;;;27.53;27.26;95990.88;5022433;28;20709;-29
2021/05/15 00:07:38;;;;;;;0.43;0.30;;;;;;;27.54;27.46;95984.69;5026559;28;20059;-28
2021/05/15 00:10:05;;;;;;;0.50;0.30;;;;;;;27.55;27.19;95986.34;5028971;28;20043;-27
2021/05/15 00:12:30;;;;;;;2.20;0.30;;;;;;;27.53;27.28;95986.47;5032705;28;20681;-29
2021/05/15 00:14:57;;;;;;;0.70;0.30;;;;;;;27.54;27.25;95979.44;5033133;28;20037;-29
2021/05/15 00:17:22;;;;;;;3.15;0.60;;;;;;;27.53;27.30;95980.34;5029765;28;20453;-31
2021/05/15 00:19:48;;;;;;;0.30;0.20;;;;;;;27.53;27.29;95985.63;5031720;28;20028;-29
2021/05/15 00:22:13;;;;;;;0.93;0.40;;;;;;;27.53;27.37;95985.63;5026532;28;20044;-29
2021/05/15 00:24:39;;;;;;;0.80;0.43;;;;;;;27.53;27.35;95975.94;5030767;28;20033;-28
2021/05/15 00:27:04;;;;;;;1.83;0.35;;;;;;;27.52;27.25;95969.00;5032878;28;20796;-29
2021/05/15 00:29:30;;;;;;;1.70;0.30;;;;;;;27.52;27.23;95979.53;5025041;28;20029;-28
2021/05/15 00:31:55;;;;;;;0.65;0.30;;;;;;;27.52;27.40;95974.28;5031075;28;20091;-32
2021/05/15 00:34:21;;;;;;;1.95;0.40;;;;;;;27.52;27.29;95978.69;5038261;28;20036;-33
2021/05/15 00:36:48;;;;;;;1.30;0.50;;;;;;;27.51;27.36;95977.81;5027459;28;20035;-32
2021/05/15 00:39:13;;;;;;;0.85;0.30;;;;;;;27.51;27.39;95982.28;5021707;28;20040;-29
2021/05/15 00:41:39;;;;;;;0.85;0.50;;;;;;;27.51;27.21;95977.00;5031749;28;20032;-31
2021/05/15 00:46:39;;;;;;;0.70;0.50;;;;;;;27.51;27.34;95969.13;5031056;28;20580;-30
2021/05/15 00:49:05;;;;;;;0.20;0.20;;;;;;;27.51;27.40;95972.56;5016258;28;20094;-30
2021/05/15 00:51:31;;;;;;;1.10;0.43;;;;;;;27.50;27.32;95976.16;5028391;28;20511;-28
2021/05/15 00:53:57;;;;;;;0.47;0.30;;;;;;;27.50;27.33;95967.44;5034068;28;20124;-31
2021/05/15 00:56:22;;;;;;;1.80;0.30;;;;;;;27.50;27.37;95973.53;5035641;28;20068;-27
2021/05/15 00:58:48;;;;;;;1.70;0.50;;;;;;;27.50;27.35;95965.63;5031717;28;20780;-30
2021/05/15 01:01:13;;;;;;;0.55;0.40;;;;;;;27.50;27.44;95975.34;5031778;28;20045;-30
2021/05/15 01:03:39;;;;;;;2.10;0.35;;;;;;;27.50;27.23;95972.69;5031734;28;20041;-32
2021/05/15 01:06:04;;;;;;;0.68;0.43;;;;;;;27.50;27.41;95965.63;5030467;28;20029;-31
2021/05/15 01:08:29;;;;;;;2.25;0.30;;;;;;;27.48;27.40;95966.69;5034842;28;20037;-29
2021/05/15 01:10:55;;;;;;;0.20;0.20;;;;;;;27.49;27.38;95969.22;5019707;28;20036;-31
2021/05/15 01:13:31;;;;;;;1.80;0.38;;;;;;;27.49;27.37;95969.22;5031775;28;20024;-29
2021/05/15 01:15:56;;;;;;;2.13;0.43;;;;;;;27.48;27.45;95970.19;5034632;28;20029;-34
2021/05/15 01:18:24;;;;;;;3.20;0.50;;;;;;;27.48;27.42;95971.97;5028174;28;20793;-33
2021/05/15 01:20:50;;;;;;;1.00;0.50;;;;;;;27.45;27.45;95961.66;5038424;28;20483;-33
2021/05/15 01:23:15;;;;;;;2.03;0.40;;;;;;;27.49;27.49;95976.25;5034885;28;20043;-29
2021/05/15 01:25:40;;;;;;;0.30;0.25;;;;;;;27.48;27.40;95971.97;5038349;28;20078;-31
2021/05/15 01:28:06;;;;;;;0.30;0.20;;;;;;;27.48;27.46;95971.97;5032069;28;20543;-31
2021/05/15 01:30:31;;;;;;;1.08;0.20;;;;;;;27.48;27.44;95969.31;5030318;28;20049;-31
2021/05/15 01:32:56;;;;;;;0.20;0.20;;;;;;;27.48;27.24;95966.69;5033504;28;20032;-34
2021/05/15 01:35:22;;;;;;;0.43;0.30;;;;;;;27.47;27.41;95971.13;5033008;28;20037;-33
2021/05/15 01:37:47;;;;;;;0.50;0.30;;;;;;;27.46;27.46;95969.44;5030536;28;20047;-32
2021/05/15 01:40:13;;;;;;;0.43;0.20;;;;;;;27.47;27.70;95967.66;5026490;28;20029;-30
2021/05/15 01:42:39;;;;;;;1.30;0.50;;;;;;;27.46;27.42;95973.88;5035734;28;20568;-30
2021/05/15 01:45:05;;;;;;;0.70;0.20;;;;;;;27.46;27.50;95966.81;5004820;28;20020;-33
2021/05/15 01:47:34;;;;;;;0.82;0.30;;;;;;;27.48;27.51;95971.97;5030800;28;20108;-29
2021/05/15 01:49:59;;;;;;;1.85;0.30;;;;;;;27.46;27.52;95969.44;5031270;28;20123;-30
2021/05/15 01:52:25;;;;;;;1.23;0.20;;;;;;;27.46;27.50;95958.09;5030323;28;20446;-32
2021/05/15 01:54:50;;;;;;;0.57;0.30;;;;;;;27.46;27.21;95963.34;5030805;28;20032;-30
2021/05/15 01:57:16;;;;;;;1.75;0.30;;;;;;;27.45;27.56;95957.25;5033613;28;20033;-31
2021/05/15 01:59:41;;;;;;;0.68;0.30;;;;;;;27.45;27.54;95956.38;5022159;28;20025;-32
2021/05/15 02:02:07;;;;;;;0.93;0.30;;;;;;;27.45;27.52;95951.13;5028893;28;20037;-32
2021/05/15 02:04:32;;;;;;;0.30;0.20;;;;;;;27.45;27.49;95956.38;5039109;28;20079;-31
2021/05/15 02:06:57;;;;;;;1.08;0.28;;;;;;;27.44;27.46;95944.19;5024834;28;20044;-32
2021/05/15 02:09:23;;;;;;;2.63;0.30;;;;;;;27.45;27.58;95951.13;5026966;28;20029;-35
2021/05/15 02:11:48;;;;;;;1.80;0.40;;;;;;;27.44;27.50;95954.72;5031484;28;20036;-32
2021/05/15 02:14:14;;;;;;;0.28;0.22;;;;;;;27.44;27.61;95949.44;5034044;28;20666;-33
2021/05/15 02:16:39;;;;;;;0.60;0.30;;;;;;;27.43;27.58;95943.38;5030425;28;20032;-31
2021/05/15 02:19:05;;;;;;;1.60;0.30;;;;;;;27.41;27.48;95929.47;5033385;28;20484;-31
2021/05/15 02:21:30;;;;;;;0.43;0.20;;;;;;;27.43;27.43;95937.25;5029026;28;20029;-32
2021/05/15 02:23:55;;;;;;;2.30;0.60;;;;;;;27.43;27.51;95937.25;5030368;28;20025;-32
2021/05/15 02:26:21;;;;;;;0.20;0.20;;;;;;;27.43;27.62;95939.88;5028910;28;20028;-30
2021/05/15 02:28:47;;;;;;;1.08;0.30;;;;;;;27.43;27.49;95929.38;5033194;28;20039;-31
2021/05/15 02:31:12;;;;;;;0.70;0.30;;;;;;;27.42;27.54;95931.16;5034026;28;20044;-29
2021/05/15 02:33:38;;;;;;;0.22;0.13;;;;;;;27.42;27.60;95930.31;5035194;28;20116;-30
2021/05/15 02:36:03;;;;;;;1.67;0.40;;;;;;;27.42;27.55;95920.63;5032779;28;20017;-28
2021/05/15 02:38:28;;;;;;;1.50;0.40;;;;;;;27.43;27.84;95924.09;5032335;28;20567;-33
2021/05/15 02:40:54;;;;;;;0.90;0.40;;;;;;;27.42;27.43;95925.88;5033071;28;20037;-31
2021/05/15 02:43:20;;;;;;;0.47;0.30;;;;;;;27.43;27.68;95918.84;5034579;28;20531;-30
2021/05/15 02:45:47;;;;;;;1.48;0.30;;;;;;;27.41;27.59;95918.94;5025430;28;20712;-28
2021/05/15 02:48:19;;;;;;;0.52;0.20;;;;;;;27.42;27.51;95925.88;5026769;28;20483;-30
2021/05/15 02:50:49;;;;;;;2.08;0.52;;;;;;;27.42;27.69;95917.16;5029242;28;20432;-31
2021/05/15 02:53:15;;;;;;;2.08;0.52;;;;;;;27.40;27.61;95912.00;5036004;28;20087;-30
2021/05/15 02:55:40;;;;;;;0.30;0.30;;;;;;;27.42;27.58;95917.16;5036170;28;20288;-31
2021/05/15 02:58:06;;;;;;;2.28;0.38;;;;;;;27.41;27.58;95912.88;5028044;28;20506;-31
2021/05/15 03:00:31;;;;;;;2.95;0.40;;;;;;;27.41;27.83;95912.88;5025762;28;20054;-30
2021/05/15 03:02:57;;;;;;;0.50;0.30;;;;;;;27.40;27.58;95922.53;5028699;28;20082;-33
2021/05/15 03:05:23;;;;;;;0.65;0.30;;;;;;;27.39;27.61;95912.97;5020161;28;20044;-32
2021/05/15 03:07:49;;;;;;;2.45;0.35;;;;;;;27.39;27.59;95919.06;5022000;28;20125;-32
2021/05/15 03:10:14;;;;;;;0.40;0.30;;;;;;;27.40;27.69;95917.28;5024074;28;20025;-32
2021/05/15 03:12:40;;;;;;;0.60;0.22;;;;;;;27.41;27.63;95920.75;5031053;28;21044;-29
2021/05/15 03:15:07;;;;;;;0.63;0.30;;;;;;;27.41;27.65;95912.88;5037451;28;20395;-30
2021/05/15 03:17:34;;;;;;;1.17;0.20;;;;;;;27.41;27.60;95907.59;5025102;28;20032;-27
2021/05/15 03:19:59;;;;;;;1.58;0.60;;;;;;;27.39;27.59;95905.91;5031092;28;20055;-33
2021/05/15 03:22:24;;;;;;;0.73;0.20;;;;;;;27.39;27.66;95900.63;5031925;28;20049;-30
2021/05/15 03:24:50;;;;;;;0.88;0.30;;;;;;;27.39;27.64;95900.63;5032093;28;20324;-30
2021/05/15 03:27:15;;;;;;;1.20;0.30;;;;;;;27.38;27.77;95898.97;5034067;28;20101;-30
2021/05/15 03:29:41;;;;;;;0.40;0.30;;;;;;;27.38;27.74;95901.59;5019764;28;20602;-31
2021/05/15 03:32:07;;;;;;;2.72;0.40;;;;;;;27.37;27.75;95899.94;5032031;28;20097;-30
2021/05/15 03:34:33;;;;;;;1.17;0.40;;;;;;;27.38;27.68;95898.13;5028272;28;20035;-30
2021/05/15 03:36:58;;;;;;;1.55;0.50;;;;;;;27.36;27.69;95900.88;5032206;28;20700;-31
2021/05/15 03:39:24;;;;;;;0.65;0.38;;;;;;;27.37;27.79;95902.56;5024911;28;20029;-31
2021/05/15 03:41:49;;;;;;;0.15;0.15;;;;;;;27.36;27.82;95900.03;5031342;28;20028;-29
2021/05/15 03:44:14;;;;;;;0.43;0.28;;;;;;;27.36;27.66;95898.25;5033733;28;20598;-33
2021/05/15 03:46:40;;;;;;;2.17;0.17;;;;;;;27.36;27.74;95900.88;5031633;28;20047;-33
2021/05/15 03:49:08;;;;;;;0.40;0.30;;;;;;;27.36;27.69;95903.53;5033721;28;20085;-30
2021/05/15 03:51:33;;;;;;;2.60;0.38;;;;;;;27.36;27.65;95900.88;5030329;28;20032;-30
2021/05/15 03:53:59;;;;;;;2.58;0.22;;;;;;;27.35;27.69;95904.44;5038051;28;20438;-34
2021/05/15 03:56:24;;;;;;;1.17;0.30;;;;;;;27.36;27.77;95900.03;5035111;28;20036;-31
2021/05/15 03:58:49;;;;;;;1.95;0.22;;;;;;;27.36;27.75;95900.03;5031097;28;20671;-32
2021/05/15 04:01:15;;;;;;;0.68;0.20;;;;;;;27.36;27.82;95906.16;5031651;28;20443;-33
2021/05/15 04:03:40;;;;;;;0.20;0.20;;;;;;;27.34;27.73;95892.25;5025278;28;20044;-29
2021/05/15 04:06:06;;;;;;;0.30;0.10;;;;;;;27.35;27.76;95888.66;5033655;28;20031;-33
2021/05/15 04:08:31;;;;;;;0.63;0.25;;;;;;;27.35;27.79;95898.38;5034050;28;20384;-32
2021/05/15 04:10:56;;;;;;;1.38;0.30;;;;;;;27.34;27.77;95896.69;5033724;28;20507;-30
2021/05/15 04:13:43;;;;;;;0.10;0.10;;;;;;;27.34;27.72;95887.00;5032032;28;20032;-30
2021/05/15 04:16:13;;;;;;;0.22;0.20;;;;;;;27.34;27.78;95891.44;5024153;28;20017;-31
2021/05/15 04:18:38;;;;;;;0.20;0.20;;;;;;;27.33;27.79;95893.22;5035707;28;20029;-33
2021/05/15 04:21:04;;;;;;;0.13;0.13;;;;;;;27.33;27.76;95895.84;5026718;28;20568;-31
2021/05/15 04:23:29;;;;;;;2.65;0.10;;;;;;;27.33;27.85;95898.47;5028611;28;20056;-31
2021/05/15 04:25:55;;;;;;;0.30;0.30;;;;;;;27.33;27.81;95902.88;5033169;28;20024;-29
2021/05/15 04:28:20;;;;;;;2.40;0.30;;;;;;;27.31;27.80;95903.00;5033592;28;20033;-29
2021/05/15 04:30:47;;;;;;;1.92;0.22;;;;;;;27.31;27.77;95913.50;5032265;28;20053;-31
2021/05/15 04:33:12;;;;;;;0.20;0.20;;;;;;;27.33;27.80;95911.63;5030845;28;20666;-29
2021/05/15 04:35:37;;;;;;;0.45;0.20;;;;;;;27.33;27.87;95901.09;5032615;28;20026;-30
2021/05/15 04:38:04;;;;;;;1.65;0.22;;;;;;;27.32;27.73;95912.59;5035631;28;20029;-29
2021/05/15 04:40:29;;;;;;;0.52;0.40;;;;;;;27.33;27.85;95913.41;5033825;28;20052;-31
2021/05/15 04:42:56;;;;;;;1.92;0.93;;;;;;;27.32;27.78;95909.97;5028593;28;20032;-32
2021/05/15 04:45:21;;;;;;;0.93;0.20;;;;;;;27.32;27.81;95915.22;5026709;28;20033;-31
2021/05/15 04:47:47;;;;;;;0.98;0.20;;;;;;;27.30;27.78;95906.59;5025289;28;20051;-31
2021/05/15 04:50:12;;;;;;;0.75;0.20;;;;;;;27.32;27.74;95915.22;5031349;28;20040;-30
2021/05/15 04:52:38;;;;;;;0.98;0.25;;;;;;;27.31;27.76;95908.25;5030633;28;20102;-29
2021/05/15 04:55:04;;;;;;;1.98;0.32;;;;;;;27.32;27.82;95917.84;5034535;28;20554;-32
2021/05/15 04:57:30;;;;;;;0.98;0.20;;;;;;;27.31;27.78;95913.50;5030300;28;20031;-30
2021/05/15 04:59:55;;;;;;;3.20;0.60;;;;;;;27.31;27.65;95910.88;5026357;28;20036;-29
2021/05/15 05:02:21;;;;;;;0.45;0.20;;;;;;;27.32;27.82;95912.59;5025660;28;20116;-31
2021/05/15 05:04:46;;;;;;;0.20;0.20;;;;;;;27.32;27.91;95915.22;5025219;28;20411;-31
2021/05/15 05:07:11;;;;;;;0.30;0.20;;;;;;;27.31;27.92;95910.88;5029290;28;20029;-31
2021/05/15 05:09:37;;;;;;;1.92;0.40;;;;;;;27.31;27.79;95908.25;5028680;28;20074;-31
2021/05/15 05:12:02;;;;;;;4.50;0.30;;;;;;;27.32;27.80;95915.22;5030763;28;20048;-31
2021/05/15 05:14:28;;;;;;;0.50;0.20;;;;;;;27.30;27.84;95901.31;5031226;28;20040;-31
2021/05/15 05:16:56;;;;;;;1.00;0.40;;;;;;;27.31;27.81;95908.25;5028412;28;20479;-27
2021/05/15 05:19:24;;;;;;;0.90;0.30;;;;;;;27.30;27.90;95906.59;5027527;28;20064;-29
2021/05/15 05:21:50;;;;;;;1.67;0.22;;;;;;;27.31;27.88;95907.44;5026105;28;20025;-31
2021/05/15 05:24:15;;;;;;;0.45;0.20;;;;;;;27.30;27.84;95896.06;5033689;28;20548;-32
2021/05/15 05:26:41;;;;;;;0.10;0.10;;;;;;;27.30;27.76;95896.06;5033027;28;20033;-31
2021/05/15 05:29:08;;;;;;;2.78;0.35;;;;;;;27.30;27.92;95890.81;5031680;28;20435;-29
2021/05/15 05:31:40;;;;;;;1.45;0.30;;;;;;;27.30;27.89;95897.88;5033368;28;20043;-33
2021/05/15 05:34:06;;;;;;;0.73;0.30;;;;;;;27.30;27.90;95901.31;5033678;28;20587;-32
2021/05/15 05:36:32;;;;;;;1.50;0.30;;;;;;;27.29;27.87;95897.03;5032802;28;20158;-30
2021/05/15 05:38:57;;;;;;;0.30;0.17;;;;;;;27.29;27.83;95902.28;5028922;28;20052;-32
2021/05/15 05:41:24;;;;;;;0.85;0.20;;;;;;;27.29;27.82;95897.03;5032521;28;20060;-27
2021/05/15 05:43:51;;;;;;;1.88;0.30;;;;;;;27.29;27.86;95902.28;5037009;28;20024;-32
2021/05/15 05:46:16;;;;;;;0.95;0.22;;;;;;;27.30;27.87;95903.94;5031557;28;20047;-29
2021/05/15 05:48:41;;;;;;;0.70;0.20;;;;;;;27.29;27.93;95893.53;5032223;28;20110;-32
2021/05/15 05:51:07;;;;;;;2.10;0.20;;;;;;;27.29;27.90;95889.13;5028671;28;20407;-34
2021/05/15 05:53:32;;;;;;;1.38;0.20;;;;;;;27.29;27.91;95894.38;5037948;28;20028;-30
2021/05/15 05:55:57;;;;;;;0.93;0.30;;;;;;;27.29;28.00;95889.13;5038564;28;20028;-29
2021/05/15 05:58:23;;;;;;;2.40;0.30;;;;;;;27.29;27.93;95889.13;5033805;28;20541;-31
2021/05/15 06:00:48;;;;;;;0.73;0.30;;;;;;;27.30;27.98;95895.25;5026097;28;20101;-30
2021/05/15 06:03:14;;;;;;;1.45;0.28;;;;;;;27.30;27.91;95885.53;5028645;28;20192;-32
2021/05/15 06:05:39;;;;;;;0.93;0.28;;;;;;;27.30;27.92;95890.81;5035501;28;20036;-30
2021/05/15 06:08:08;;;;;;;1.20;0.20;;;;;;;27.29;27.90;95889.13;5031947;28;21665;-28
2021/05/15 06:10:35;;;;;;;0.30;0.10;;;;;;;27.30;27.94;95884.72;5034615;28;20024;-32
2021/05/15 06:13:01;;;;;;;0.22;0.13;;;;;;;27.29;27.86;95881.25;5034630;28;20903;-30
2021/05/15 06:15:26;;;;;;;1.17;0.32;;;;;;;27.28;27.92;95882.19;5032291;28;20048;-27
2021/05/15 06:17:52;;;;;;;0.10;0.10;;;;;;;27.29;27.83;95883.88;5025669;28;20090;-27
2021/05/15 06:20:17;;;;;;;1.30;0.20;;;;;;;27.28;27.91;95876.94;5029296;28;20588;-29
2021/05/15 06:22:42;;;;;;;0.75;0.28;;;;;;;27.29;27.90;95873.34;5036474;28;20043;-31
2021/05/15 06:25:09;;;;;;;1.00;0.28;;;;;;;27.28;27.92;95874.31;5030492;28;20037;-33
2021/05/15 06:27:34;;;;;;;3.30;0.60;;;;;;;27.29;27.83;95873.34;5028281;28;20090;-30
2021/05/15 06:29:59;;;;;;;3.55;0.47;;;;;;;27.29;27.95;95873.34;5038937;28;20527;-31
2021/05/15 06:32:25;;;;;;;0.93;0.20;;;;;;;27.30;27.96;95874.19;5025332;28;20042;-29
2021/05/15 06:34:50;;;;;;;3.55;0.50;;;;;;;27.30;27.91;95880.28;5028272;28;20598;-29
2021/05/15 06:37:16;;;;;;;5.82;0.73;;;;;;;27.30;27.92;95871.56;5028364;28;20029;-32
2021/05/15 06:39:41;;;;;;;9.15;1.00;;;;;;;27.30;28.15;95875.00;5029302;28;20384;-31
2021/05/15 06:42:07;;;;;;;7.32;1.08;;;;;;;27.30;28.37;95874.19;5025439;28;20025;-29
2021/05/15 06:44:32;;;;;;;2.42;0.50;;;;;;;27.30;28.10;95875.00;5017281;28;20466;-32
2021/05/15 06:46:57;;;;;;;4.13;0.50;;;;;;;27.30;27.84;95868.94;5026947;28;20056;-31
2021/05/15 06:49:23;;;;;;;5.93;1.00;;;;;;;27.30;27.47;95874.19;5016942;28;20056;-31
2021/05/15 06:51:48;;;;;;;4.53;0.88;;;;;;;27.27;27.20;95880.53;5027130;28;21227;-32
2021/05/15 06:54:14;;;;;;;5.07;0.73;;;;;;;27.24;27.04;95875.47;5026489;28;20029;-29
2021/05/15 06:56:39;;;;;;;5.20;0.70;;;;;;;27.22;26.75;95872.09;5023993;28;20889;-29
2021/05/15 06:59:04;;;;;;;2.58;0.75;;;;;;;27.19;26.64;95875.81;5027812;28;20286;-31
2021/05/15 07:01:30;;;;;;;0.93;0.60;;;;;;;27.17;26.62;95868.97;5025917;28;20091;-31
2021/05/15 07:03:55;;;;;;;2.20;0.60;;;;;;;27.14;26.68;95870.06;5027634;28;20090;-30
2021/05/15 07:06:20;;;;;;;4.07;0.40;;;;;;;27.11;26.51;95868.50;5025493;28;20025;-29
2021/05/15 07:08:46;;;;;;;1.27;0.68;;;;;;;27.09;26.54;95873.03;5025478;28;20523;-31
2021/05/15 07:11:11;;;;;;;2.40;0.52;;;;;;;27.07;26.48;95874.06;5025669;28;20025;-33
2021/05/15 07:13:37;;;;;;;7.25;0.70;;;;;;;27.05;26.47;95871.56;5027839;28;20523;-29
2021/05/15 07:16:02;;;;;;;1.65;0.73;;;;;;;27.03;26.58;95868.22;5022600;28;20024;-29
2021/05/15 07:18:28;;;;;;;3.92;0.93;;;;;;;27.02;26.64;95877.06;5026965;28;20021;-32
2021/05/15 07:20:53;;;;;;;2.75;0.70;;;;;;;27.00;26.61;95865.78;5017737;28;20663;-30
2021/05/15 07:23:19;;;;;;;4.20;0.65;;;;;;;26.98;26.29;95865.94;5024511;28;20037;-32
2021/05/15 07:25:44;;;;;;;3.13;0.60;;;;;;;26.97;26.50;95855.53;5026240;28;20025;-29
2021/05/15 07:28:09;;;;;;;1.45;0.50;;;;;;;26.96;26.51;95857.28;5028248;28;20028;-28
2021/05/15 07:30:35;;;;;;;9.98;0.73;;;;;;;26.95;26.52;95862.66;5029082;28;20048;-34
2021/05/15 07:33:01;;;;;;;1.33;0.60;;;;;;;26.93;26.48;95849.59;5031939;28;20029;-29
2021/05/15 07:35:26;;;;;;;2.65;0.80;;;;;;;26.93;26.45;95856.66;5019440;28;20246;-33
2021/05/15 07:37:52;;;;;;;2.58;0.75;;;;;;;26.92;26.41;95844.47;5027270;28;20025;-26
2021/05/15 07:40:18;;;;;;;1.25;0.60;;;;;;;26.91;26.37;95843.63;5021486;28;20075;-31
2021/05/15 07:42:44;;;;;;;1.48;0.70;;;;;;;26.91;26.46;95842.78;5022039;28;20468;-28
2021/05/15 07:45:10;;;;;;;1.17;0.70;;;;;;;26.88;26.38;95844.69;5022591;28;20671;-28
2021/05/15 07:47:35;;;;;;;3.53;0.63;;;;;;;26.86;26.31;95841.31;5023141;28;20139;-29
2021/05/15 07:50:01;;;;;;;3.60;0.70;;;;;;;26.87;26.30;95843.00;5024913;28;20036;-31
2021/05/15 07:52:28;;;;;;;1.20;0.63;;;;;;;26.86;26.23;95846.56;5022957;28;23008;-30
2021/05/15 07:54:53;;;;;;;3.70;0.60;;;;;;;26.86;26.39;95840.50;5022913;28;20539;-31
2021/05/15 07:57:19;;;;;;;1.40;0.47;;;;;;;26.85;26.43;95844.09;5021461;28;20017;-29
2021/05/15 07:59:45;;;;;;;1.85;0.80;;;;;;;26.84;26.25;95837.97;5024571;28;20032;-34
2021/05/15 08:02:10;;;;;;;1.30;0.60;;;;;;;26.85;26.31;95844.91;5013988;28;20037;-30
2021/05/15 08:04:36;;;;;;;10.13;0.75;;;;;;;26.85;26.26;95847.53;5025209;28;20040;-30
2021/05/15 08:07:02;;;;;;;3.08;0.70;;;;;;;26.85;26.36;95839.63;5019505;28;20488;-28
2021/05/15 08:09:27;;;;;;;1.98;0.82;;;;;;;26.85;26.33;95838.81;5019574;28;20636;-33
2021/05/15 08:11:52;;;;;;;31.17;2.00;;;;;;;26.84;26.57;95835.34;5026389;28;20098;-34
2021/05/15 08:14:18;;;;;;;6.80;1.20;;;;;;;26.84;25.77;95842.38;5024730;28;20543;-31
2021/05/15 08:16:43;;;;;;;1.25;0.60;;;;;;;26.76;25.22;95840.31;5036006;28;20021;-29
2021/05/15 08:19:09;;;;;;;2.15;0.68;;;;;;;26.64;24.71;95835.94;5026963;28;20025;-29
2021/05/15 08:21:34;;;;;;;2.22;0.70;;;;;;;26.50;24.67;95834.31;5027305;28;20482;-32
2021/05/15 08:24:00;;;;;;;2.80;1.20;;;;;;;26.37;24.95;95832.56;5029060;28;21743;-34
2021/05/15 08:26:27;;;;;;;3.65;0.70;;;;;;;26.28;25.19;95828.78;5026290;28;20090;-29
2021/05/15 08:28:53;;;;;;;3.08;0.85;;;;;;;26.25;25.46;95826.34;5027518;28;20029;-32
2021/05/15 08:31:18;;;;;;;2.08;0.70;;;;;;;26.25;25.79;95828.13;5026054;28;20037;-32
2021/05/15 08:33:49;;;;;;;2.45;0.55;;;;;;;26.25;25.94;95828.97;5023652;28;20036;-31
2021/05/15 08:36:14;;;;;;;5.13;0.70;;;;;;;26.27;26.00;95828.91;5023106;28;22781;-31
2021/05/15 08:38:40;;;;;;;3.92;0.80;;;;;;;26.30;26.04;95829.53;5022503;28;20036;-31
2021/05/15 08:41:09;;;;;;;4.35;0.85;;;;;;;26.34;26.20;95828.34;5024691;28;20071;-29
2021/05/15 08:43:37;;;;;;;2.42;0.50;;;;;;;26.39;26.33;95824.56;5030327;28;20037;-32
2021/05/15 08:46:03;;;;;;;5.75;0.88;;;;;;;26.44;26.41;95823.31;5021076;28;20064;-32
2021/05/15 08:48:32;;;;;;;2.47;0.68;;;;;;;26.48;26.54;95826.53;5023942;28;20021;-31
2021/05/15 08:51:00;;;;;;;7.53;1.08;;;;;;;26.52;26.49;95822.75;5008029;28;20445;-29
2021/05/15 08:53:26;;;;;;;4.88;1.02;;;;;;;26.56;26.64;95823.34;5025246;28;20086;-31
2021/05/15 08:55:52;;;;;;;5.88;1.00;;;;;;;26.59;26.70;95818.72;5024312;28;20188;-26
2021/05/15 08:58:17;;;;;;;6.20;0.93;;;;;;;26.63;26.55;95821.13;5020801;28;20529;-34
2021/05/15 09:00:42;;;;;;;2.55;0.75;;;;;;;26.67;26.59;95814.69;5003515;28;20046;-28
2021/05/15 09:03:09;;;;;;;6.05;0.90;;;;;;;26.71;26.79;95816.16;5028363;28;20026;-32
2021/05/15 09:05:36;;;;;;;1.75;0.60;;;;;;;26.73;26.74;95808.97;5024318;28;20029;-31
2021/05/15 09:08:03;;;;;;;2.00;0.85;;;;;;;26.76;26.90;95808.78;5016096;28;20036;-27
2021/05/15 09:10:30;;;;;;;5.50;1.45;;;;;;;26.79;26.88;95803.31;5027367;28;20028;-32
2021/05/15 09:13:21;;;;;;;4.05;1.48;;;;;;;26.82;27.04;95797.81;5028882;28;20397;-28
2021/05/15 09:15:52;;;;;;;6.17;1.90;;;;;;;26.85;27.07;95805.47;5039451;28;20113;-34
2021/05/15 09:18:22;;;;;;;8.48;2.45;;;;;;;26.87;27.10;95810.63;5041312;28;20091;-31
2021/05/15 09:20:48;;;;;;;9.75;2.50;;;;;;;26.90;27.21;95801.66;5036975;28;20033;-33
2021/05/15 09:23:22;;;;;;;8.85;2.88;;;;;;;26.92;27.18;95797.16;5032959;28;20025;-28
2021/05/15 09:26:00;;;;;;;9.15;2.50;;;;;;;26.95;27.15;95804.81;5033141;28;20526;-31
2021/05/15 09:28:39;;;;;;;16.27;2.30;;;;;;;26.96;27.25;95796.00;5036231;28;20068;-33
2021/05/15 09:31:35;;;;;;;9.30;2.38;;;;;;;26.98;27.31;95801.97;5034191;28;20124;-31
2021/05/15 09:34:05;;;;;;;16.80;2.47;;;;;;;27.00;27.24;95798.28;5037998;28;20041;-30
2021/05/15 09:36:35;;;;;;;13.60;2.38;;;;;;;27.02;27.37;95798.16;5036491;28;20109;-32
2021/05/15 09:39:03;;;;;;;11.68;2.13;;;;;;;27.04;27.22;95785.72;5038398;28;20710;-31
2021/05/15 09:41:43;;;;;;;7.68;2.20;;;;;;;27.06;27.38;95789.09;5035126;28;20700;-32
2021/05/15 09:44:10;;;;;;;12.52;2.45;;;;;;;27.07;27.40;95780.25;5038213;28;20033;-33
2021/05/15 09:46:37;;;;;;;12.30;2.25;;;;;;;27.09;27.39;95777.53;5024966;28;20209;-31
2021/05/15 09:49:03;;;;;;;6.72;2.25;;;;;;;27.11;27.40;95775.59;5039598;28;20365;-30
2021/05/15 09:51:28;;;;;;;8.00;1.95;;;;;;;27.12;27.48;95764.97;5033985;28;20020;-31
2021/05/15 09:53:54;;;;;;;7.60;2.10;;;;;;;27.12;27.61;95757.06;5037095;28;20025;-33
2021/05/15 09:56:29;;;;;;;11.43;2.67;;;;;;;27.15;27.44;95755.19;5037831;28;20077;-27
2021/05/15 09:58:56;;;;;;;7.30;2.13;;;;;;;27.16;27.53;95757.72;5040882;28;20028;-30
2021/05/15 10:01:21;;;;;;;8.52;2.35;;;;;;;27.17;27.60;95758.53;5037250;28;20041;-29
2021/05/15 10:03:48;;;;;;;8.05;1.90;;;;;;;27.18;27.63;95754.94;5024418;28;20060;-32
2021/05/15 10:06:15;;;;;;;6.43;2.33;;;;;;;27.20;27.66;95746.00;5038170;28;20021;-30
2021/05/15 10:08:41;;;;;;;11.98;2.42;;;;;;;27.21;27.73;95744.19;5036290;28;20768;-32
2021/05/15 10:11:07;;;;;;;7.60;2.33;;;;;;;27.22;27.67;95733.56;5034626;28;20037;-29
2021/05/15 10:13:33;;;;;;;7.25;2.13;;;;;;;27.25;27.69;95735.13;5037406;28;20033;-27
2021/05/15 10:15:59;;;;;;;9.40;2.35;;;;;;;27.27;27.75;95733.22;5039656;28;20112;-33
2021/05/15 10:18:24;;;;;;;8.18;2.25;;;;;;;27.27;27.71;95728.78;5039642;28;20025;-32
2021/05/15 10:20:50;;;;;;;10.18;1.95;;;;;;;27.29;27.81;95731.31;5039836;28;20538;-31
2021/05/15 10:23:17;;;;;;;10.35;1.88;;;;;;;27.31;27.77;95724.13;5034917;28;20029;-29
2021/05/15 10:25:42;;;;;;;8.20;2.28;;;;;;;27.32;27.71;95725.81;5011405;28;20411;-30
2021/05/15 10:28:07;;;;;;;10.18;2.30;;;;;;;27.34;27.76;95723.91;5033941;28;20020;-31
2021/05/15 10:30:33;;;;;;;7.57;2.35;;;;;;;27.35;27.72;95715.03;5032626;28;20044;-31
2021/05/15 10:33:02;;;;;;;10.18;2.17;;;;;;;27.37;27.86;95713.16;5039234;28;20036;-33
2021/05/15 10:35:41;;;;;;;6.32;1.77;;;;;;;27.38;27.75;95714.81;5017607;28;20020;-33
2021/05/15 10:38:13;;;;;;;6.43;2.15;;;;;;;27.38;27.85;95717.44;5020034;28;20080;-35
2021/05/15 10:40:51;;;;;;;5.30;1.80;;;;;;;27.41;27.93;95707.66;5030262;28;20498;-32
2021/05/15 10:43:32;;;;;;;6.80;1.50;;;;;;;27.41;27.86;95697.13;5024811;28;20020;-33
2021/05/15 10:45:58;;;;;;;3.47;1.33;;;;;;;27.41;27.87;95695.31;5026237;28;20896;-32
2021/05/15 10:48:26;;;;;;;5.50;1.80;;;;;;;27.42;27.93;95704.06;5025573;28;20040;-28
2021/05/15 10:51:01;;;;;;;5.20;2.00;;;;;;;27.43;27.97;95700.47;5023590;28;20024;-29
2021/05/15 10:53:31;;;;;;;10.07;1.90;;;;;;;27.43;27.99;95685.53;5021028;28;20044;-30
2021/05/15 10:56:17;;;;;;;7.03;2.00;;;;;;;27.46;28.13;95689.72;5015447;28;20861;-32
2021/05/15 10:58:50;;;;;;;5.93;1.85;;;;;;;27.47;28.13;95686.13;5023484;28;20087;-33
2021/05/15 11:01:23;;;;;;;9.20;1.80;;;;;;;27.47;28.06;95686.13;5021908;28;20041;-30
2021/05/15 11:03:49;;;;;;;9.95;1.75;;;;;;;27.47;28.11;95675.59;5029064;28;20036;-35
2021/05/15 11:06:18;;;;;;;6.88;1.55;;;;;;;27.47;28.21;95673.81;5027173;28;20029;-31
2021/05/15 11:08:54;;;;;;;6.55;1.80;;;;;;;27.47;28.30;95665.91;5023806;28;20042;-34
2021/05/15 11:11:20;;;;;;;5.05;1.67;;;;;;;27.49;28.33;95673.66;5013238;28;20446;-32
2021/05/15 11:13:49;;;;;;;10.32;1.80;;;;;;;27.49;28.36;95674.53;5022618;28;20135;-30
2021/05/15 11:16:14;;;;;;;7.15;1.80;;;;;;;27.50;28.41;95680.63;5024403;28;20154;-35
2021/05/15 11:18:40;;;;;;;6.68;1.63;;;;;;;27.51;28.41;95677.03;5025624;28;22073;-29
2021/05/15 11:21:07;;;;;;;5.47;1.65;;;;;;;27.51;28.61;95663.88;5033468;28;20063;-32
2021/05/15 11:23:35;;;;;;;4.93;1.58;;;;;;;27.52;28.67;95647.97;5024295;28;20029;-31
2021/05/15 11:26:02;;;;;;;4.97;1.70;;;;;;;27.53;28.61;95648.78;5025836;28;20535;-32
2021/05/15 11:28:29;;;;;;;3.50;1.25;;;;;;;27.54;28.65;95639.97;5024188;28;20056;-32
2021/05/15 11:30:54;;;;;;;3.75;1.38;;;;;;;27.54;28.80;95639.97;5026744;28;20060;-28
2021/05/15 11:33:20;;;;;;;4.55;1.80;;;;;;;27.56;28.70;95638.03;5027018;28;20027;-32